KIWA

Phoenix-Mesa Gateway Airport

Phoenix, Arizona, USA
METAR KIWA 271135Z AUTO 11007KT 10SM CLR 17/01 A2982 RMK AO2 T01660007
Observed Flight Rules
May-27 @ 11:35 UTC (30 minutes ago) Visual Flight Rules
Wind Visibility Clouds
110° at 7 knots 10 miles
  • Clear skies
Temperatures Readings
Current 17°C / 63°F
Dewpoint 1°C / 34°F
Humidity 34%
Altimeter 29.82" Hg
Pressure 1010 hPa
Elevation 412
METAR KIWA 271135Z AUTO 11007KT 10SM CLR 17/01 A2982 RMK AO2 T01660007
Observed Flight Rules
May-27 @ 11:35 UTC
(30 minutes ago)
VFR
Wind Visibility
110° at 7 knots 10 miles
Clouds
  • Clear skies
Temperature Dewpoint
17°C / 63°F 1°C / 34°F
Humidity Altimeter Pressure
34% 29.82" Hg 1010 hPa